KSMO/SMO METAR and TAF weather

Enter ICAO airport designator
Station Type Date Time Source
KSMO METAR 2022/01/26 06:51 UTC NOAA

KSMO 260651Z AUTO 00000KT CLR 11/07 A3007 RMK AO2 SLP180 T01060067


Station Type Date Time Source
KSMO Decoded METAR 2022/01/26 06:51 UTC NOAA

SANTA MONICA MUNICIPAL AIRPORT , CA, United States (KSMO) 34-01N 118-27W 57M
Jan 26, 2022 - 01:51 AM EST / 2022.01.26 0651 UTC
Wind: Calm:0
Sky conditions: clear
Temperature: 51.1 F (10.6 C)
Dew Point: 44.1 F (6.7 C)
Relative Humidity: 76%
Pressure (altimeter): 30.07 in. Hg (1018 hPa)
ob: KSMO 260651Z AUTO 00000KT CLR 11/07 A3007 RMK AO2 SLP180 T01060067
cycle: 7

Station Type Date Time Source
KSMO TAF 2022/01/26 06:33 UTC NOAA

KSMO 260529Z 2606/2706 VRB03KT P6SM SKC
FM260900 05005KT P6SM SKC
FM262100 22005KT P6SM SKC
FM270200 VRB03KT P6SM SKC

Example: see airport list